Time;durP1;ratioP1;P1;durP2;ratioP2;P2;SDS_P1;SDS_P2;PMS_P1;PMS_P2;Temp;Humidity;BMP_temperature;BMP_pressure;BME280_temperature;BME280_humidity;BME280_pressure;Samples;Min_cycle;Max_cycle;Signal;HPM_P1;HPM_P2
2024/04/05 00:00:16;;;;;;;18.87;10.87;;;;;;;;;;5071396;28;20113;-50
2024/04/05 00:02:45;;;;;;;18.35;11.50;;;;;;;;;;5071062;28;20028;-51
2024/04/05 00:05:11;;;;;;;23.48;11.35;;;;;;;;;;5051791;28;20028;-50
2024/04/05 00:07:38;;;;;;;20.57;11.77;;;;;;;;;;5051700;28;20051;-48
2024/04/05 00:10:08;;;;;;;17.13;11.88;;;;;;;;;;5034698;28;20043;-48
2024/04/05 00:12:35;;;;;;;16.98;11.85;;;;;;;;;;5034091;28;20032;-48
2024/04/05 00:15:01;;;;;;;22.27;12.90;;;;;;;;;;5051753;28;20091;-49
2024/04/05 00:17:27;;;;;;;27.15;11.82;;;;;;;;;;5051644;28;20028;-49
2024/04/05 00:19:53;;;;;;;20.10;12.45;;;;;;;;;;5051418;28;20516;-48
2024/04/05 00:22:21;;;;;;;18.37;12.70;;;;;;;;;;5051494;28;20390;-49
2024/04/05 00:24:47;;;;;;;15.63;11.13;;;;;;;;;;5033641;28;20021;-50
2024/04/05 00:27:13;;;;;;;18.00;11.50;;;;;;;;;;5052720;28;20028;-48
2024/04/05 00:29:39;;;;;;;20.92;13.40;;;;;;;;;;5051260;28;20119;-48
2024/04/05 00:32:06;;;;;;;18.08;12.20;;;;;;;;;;5052658;28;20105;-48
2024/04/05 00:34:32;;;;;;;20.45;11.63;;;;;;;;;;5033612;28;20242;-49
2024/04/05 00:36:58;;;;;;;21.20;11.93;;;;;;;;;;5033633;28;20047;-51
2024/04/05 00:39:24;;;;;;;19.87;11.33;;;;;;;;;;5052203;28;20493;-50
2024/04/05 00:41:51;;;;;;;14.05;10.95;;;;;;;;;;5034619;28;20025;-49
2024/04/05 00:44:17;;;;;;;15.48;10.80;;;;;;;;;;5051415;28;20122;-48
2024/04/05 00:46:43;;;;;;;16.65;11.32;;;;;;;;;;5046520;28;20033;-48
2024/04/05 00:49:10;;;;;;;24.92;12.45;;;;;;;;;;5071055;28;20021;-48
2024/04/05 00:51:37;;;;;;;17.48;10.40;;;;;;;;;;5070501;28;20048;-48
2024/04/05 00:54:03;;;;;;;18.60;10.82;;;;;;;;;;5071508;28;20042;-50
2024/04/05 00:56:31;;;;;;;16.17;10.23;;;;;;;;;;5069042;28;20483;-50
2024/04/05 00:58:58;;;;;;;16.17;9.48;;;;;;;;;;5052835;28;20262;-48
2024/04/05 01:01:24;;;;;;;13.48;10.15;;;;;;;;;;5070448;28;20120;-48
2024/04/05 01:03:50;;;;;;;11.75;9.50;;;;;;;;;;5069522;28;20020;-48
2024/04/05 01:06:17;;;;;;;16.55;11.10;;;;;;;;;;5065758;28;20021;-49
2024/04/05 01:08:43;;;;;;;17.83;12.13;;;;;;;;;;5046462;28;20028;-50
2024/04/05 01:11:09;;;;;;;17.98;10.80;;;;;;;;;;5055044;28;20448;-47
2024/04/05 01:13:36;;;;;;;24.55;10.98;;;;;;;;;;5037051;28;20051;-47
2024/04/05 01:16:06;;;;;;;17.15;10.93;;;;;;;;;;5056987;28;20067;-48
2024/04/05 01:18:33;;;;;;;22.25;11.20;;;;;;;;;;5075014;28;20067;-48
2024/04/05 01:21:00;;;;;;;17.83;10.18;;;;;;;;;;5074601;28;20039;-48
2024/04/05 01:23:26;;;;;;;;;;;;;;;;;;5057225;28;20111;-48
2024/04/05 01:25:53;;;;;;;17.48;9.95;;;;;;;;;;5057208;28;19909;-50
2024/04/05 01:28:19;;;;;;;15.35;10.90;;;;;;;;;;5036621;28;20475;-48
2024/04/05 01:30:45;;;;;;;14.43;11.20;;;;;;;;;;5036701;28;20084;-48
2024/04/05 01:33:11;;;;;;;17.97;10.90;;;;;;;;;;5036456;28;20035;-50
2024/04/05 01:35:39;;;;;;;17.23;11.32;;;;;;;;;;5036810;28;20025;-48
2024/04/05 01:38:05;;;;;;;15.70;9.93;;;;;;;;;;5054563;28;20079;-48
2024/04/05 01:40:31;;;;;;;21.52;10.85;;;;;;;;;;5054249;28;20032;-48
2024/04/05 01:42:57;;;;;;;18.87;10.30;;;;;;;;;;5054348;28;20439;-50
2024/04/05 01:45:24;;;;;;;16.85;10.23;;;;;;;;;;5054382;28;20025;-47
2024/04/05 01:47:50;;;;;;;14.37;8.77;;;;;;;;;;5054268;28;20111;-48
2024/04/05 01:50:17;;;;;;;19.13;9.37;;;;;;;;;;5054102;28;20033;-51
2024/04/05 01:52:43;;;;;;;19.40;9.40;;;;;;;;;;5054307;28;20028;-48
2024/04/05 01:55:09;;;;;;;18.25;9.20;;;;;;;;;;5054239;28;20033;-49
2024/04/05 01:57:39;;;;;;;14.82;8.70;;;;;;;;;;5054223;28;20033;-48
2024/04/05 02:00:06;;;;;;;13.65;10.27;;;;;;;;;;5036231;28;20043;-48
2024/04/05 02:02:38;;;;;;;19.23;9.50;;;;;;;;;;5073653;28;20094;-49
2024/04/05 02:05:05;;;;;;;19.17;11.13;;;;;;;;;;5056192;28;20426;-48
2024/04/05 02:07:31;;;;;;;14.20;10.38;;;;;;;;;;5074195;28;20028;-48
2024/04/05 02:09:57;;;;;;;21.13;9.67;;;;;;;;;;5055979;28;20045;-48
2024/04/05 02:12:24;;;;;;;17.67;11.15;;;;;;;;;;5072377;28;20039;-48
2024/04/05 02:14:51;;;;;;;16.23;10.18;;;;;;;;;;5062546;28;20032;-51
2024/04/05 02:17:17;;;;;;;14.13;9.85;;;;;;;;;;5055630;28;20382;-47
2024/04/05 02:19:45;;;;;;;14.73;9.98;;;;;;;;;;5066527;28;20028;-49
2024/04/05 02:22:11;;;;;;;22.63;11.57;;;;;;;;;;5055482;28;20114;-48
2024/04/05 02:24:37;;;;;;;19.77;10.77;;;;;;;;;;5036805;28;20029;-48
2024/04/05 02:27:03;;;;;;;17.63;10.68;;;;;;;;;;5064741;28;20017;-48
2024/04/05 02:29:30;;;;;;;21.88;10.65;;;;;;;;;;5052563;28;20048;-48
2024/04/05 02:31:57;;;;;;;18.75;11.30;;;;;;;;;;5067222;28;20466;-49
2024/04/05 02:34:23;;;;;;;18.83;10.05;;;;;;;;;;5073495;28;20230;-48
2024/04/05 02:36:52;;;;;;;19.48;11.35;;;;;;;;;;5055605;28;20031;-48
2024/04/05 02:39:19;;;;;;;14.07;9.90;;;;;;;;;;5073251;28;20035;-48
2024/04/05 02:41:48;;;;;;;14.32;10.07;;;;;;;;;;5055318;28;20025;-48
2024/04/05 02:44:15;;;;;;;17.30;10.43;;;;;;;;;;5039251;28;20045;-53
2024/04/05 02:46:42;;;;;;;21.52;12.18;;;;;;;;;;5035331;28;20074;-48
2024/04/05 02:49:08;;;;;;;18.55;10.43;;;;;;;;;;5053159;28;20475;-48
2024/04/05 02:51:35;;;;;;;14.85;10.10;;;;;;;;;;5053885;28;20402;-48
2024/04/05 02:54:02;;;;;;;23.33;11.38;;;;;;;;;;5058713;28;20370;-48
2024/04/05 02:56:28;;;;;;;22.92;10.23;;;;;;;;;;5059791;28;20380;-48
2024/04/05 02:58:56;;;;;;;18.93;11.23;;;;;;;;;;5052936;28;20032;-49
2024/04/05 03:01:23;;;;;;;13.50;10.25;;;;;;;;;;5067561;28;20031;-48
2024/04/05 03:03:50;;;;;;;18.95;10.60;;;;;;;;;;5058129;28;20032;-50
2024/04/05 03:06:16;;;;;;;15.68;10.20;;;;;;;;;;5053164;28;20390;-48
2024/04/05 03:08:43;;;;;;;14.65;10.75;;;;;;;;;;5053103;28;20029;-48
2024/04/05 03:11:09;;;;;;;13.98;9.82;;;;;;;;;;5052638;28;20108;-48
2024/04/05 03:13:35;;;;;;;14.02;9.75;;;;;;;;;;5052828;28;20061;-48
2024/04/05 03:16:02;;;;;;;16.55;10.38;;;;;;;;;;5064950;28;20028;-48
2024/04/05 03:18:29;;;;;;;18.13;9.63;;;;;;;;;;5052595;28;20044;-48
2024/04/05 03:20:55;;;;;;;15.23;9.63;;;;;;;;;;5041387;28;20078;-49
2024/04/05 03:23:21;;;;;;;15.25;11.25;;;;;;;;;;5072406;28;20037;-48
2024/04/05 03:25:47;;;;;;;18.92;10.90;;;;;;;;;;5054538;28;20464;-48
2024/04/05 03:28:14;;;;;;;18.77;10.27;;;;;;;;;;5072290;28;20025;-49
2024/04/05 03:30:40;;;;;;;18.20;9.20;;;;;;;;;;5047298;28;20027;-50
2024/04/05 03:33:06;;;;;;;18.50;10.30;;;;;;;;;;5064383;28;20036;-48
2024/04/05 03:35:35;;;;;;;21.60;10.48;;;;;;;;;;5052327;28;20055;-50
2024/04/05 03:38:01;;;;;;;17.13;9.38;;;;;;;;;;5034254;28;20029;-48
2024/04/05 03:40:27;;;;;;;16.42;9.98;;;;;;;;;;5043422;28;20071;-49
2024/04/05 03:42:53;;;;;;;16.77;9.68;;;;;;;;;;5054308;28;20037;-51
2024/04/05 03:45:21;;;;;;;15.95;9.63;;;;;;;;;;5049178;28;20040;-49
2024/04/05 03:47:47;;;;;;;20.88;10.57;;;;;;;;;;5043067;28;20479;-50
2024/04/05 03:50:13;;;;;;;13.82;9.82;;;;;;;;;;5071821;28;20025;-51
2024/04/05 03:52:39;;;;;;;19.02;9.85;;;;;;;;;;5071892;28;20384;-53
2024/04/05 03:55:06;;;;;;;15.13;9.18;;;;;;;;;;5042788;28;20094;-50
2024/04/05 03:57:32;;;;;;;23.00;9.83;;;;;;;;;;5053499;28;20055;-50
2024/04/05 03:59:59;;;;;;;16.02;9.05;;;;;;;;;;5051628;28;20032;-49
2024/04/05 04:02:25;;;;;;;16.35;9.10;;;;;;;;;;5051393;28;20398;-48
2024/04/05 04:04:51;;;;;;;11.18;9.30;;;;;;;;;;5051115;28;20036;-51
2024/04/05 04:07:18;;;;;;;15.30;10.17;;;;;;;;;;5049892;28;20021;-48
2024/04/05 04:09:46;;;;;;;16.80;10.47;;;;;;;;;;5049516;28;20320;-48
2024/04/05 04:12:13;;;;;;;19.52;9.98;;;;;;;;;;5049911;28;20086;-48
2024/04/05 04:14:40;;;;;;;20.33;9.95;;;;;;;;;;5015622;28;20067;-48
2024/04/05 04:17:06;;;;;;;16.55;8.98;;;;;;;;;;5049804;28;20037;-50
2024/04/05 04:19:32;;;;;;;11.90;9.32;;;;;;;;;;5050477;28;20522;-48
2024/04/05 04:21:58;;;;;;;19.17;9.85;;;;;;;;;;5051453;28;20032;-48
2024/04/05 04:24:25;;;;;;;19.00;10.25;;;;;;;;;;5051714;28;20029;-48
2024/04/05 04:26:51;;;;;;;17.05;10.00;;;;;;;;;;5051592;28;20033;-48
2024/04/05 04:29:17;;;;;;;13.15;8.70;;;;;;;;;;5054660;23;20462;-48
2024/04/05 04:31:43;;;;;;;20.10;10.88;;;;;;;;;;5069822;28;20036;-49
2024/04/05 04:34:09;;;;;;;22.48;10.80;;;;;;;;;;5071588;28;20051;-49
2024/04/05 04:36:36;;;;;;;18.35;10.75;;;;;;;;;;5071550;28;20450;-48
2024/04/05 04:39:08;;;;;;;20.17;10.07;;;;;;;;;;5071500;28;20467;-49
2024/04/05 04:41:34;;;;;;;14.85;8.77;;;;;;;;;;5071438;28;20036;-48
2024/04/05 04:44:01;;;;;;;16.13;10.93;;;;;;;;;;5075373;28;20525;-48
2024/04/05 04:46:27;;;;;;;16.05;9.43;;;;;;;;;;5075536;28;20071;-48
2024/04/05 04:48:53;;;;;;;13.03;8.67;;;;;;;;;;5075792;28;20442;-48
2024/04/05 04:51:19;;;;;;;15.63;9.83;;;;;;;;;;5075288;28;20098;-48
2024/04/05 04:53:45;;;;;;;17.85;10.38;;;;;;;;;;5075516;28;20276;-48
2024/04/05 04:56:12;;;;;;;19.42;9.18;;;;;;;;;;5075496;28;20032;-50
2024/04/05 04:58:38;;;;;;;14.02;10.45;;;;;;;;;;5075342;28;20021;-48
2024/04/05 05:01:05;;;;;;;19.23;9.40;;;;;;;;;;5073885;28;20115;-48
2024/04/05 05:03:31;;;;;;;17.27;9.77;;;;;;;;;;5090932;28;20017;-48
2024/04/05 05:05:57;;;;;;;21.20;9.43;;;;;;;;;;5073901;28;20505;-49
2024/04/05 05:08:24;;;;;;;15.55;9.23;;;;;;;;;;5075110;28;20025;-49
2024/04/05 05:10:50;;;;;;;19.67;9.88;;;;;;;;;;5075055;28;20021;-48
2024/04/05 05:13:16;;;;;;;17.80;9.43;;;;;;;;;;5075159;28;20025;-48
2024/04/05 05:15:44;;;;;;;20.77;9.60;;;;;;;;;;5075196;28;20089;-48
2024/04/05 05:18:10;;;;;;;13.55;8.75;;;;;;;;;;5073556;28;20024;-49
2024/04/05 05:20:37;;;;;;;21.63;8.90;;;;;;;;;;5074781;28;20032;-48
2024/04/05 05:23:05;;;;;;;23.27;9.82;;;;;;;;;;5075079;28;20465;-48
2024/04/05 05:25:31;;;;;;;16.33;9.45;;;;;;;;;;5074930;28;20028;-49
2024/04/05 05:27:57;;;;;;;15.25;9.25;;;;;;;;;;5074735;28;20028;-48
2024/04/05 05:30:23;;;;;;;11.32;8.48;;;;;;;;;;5107102;28;20452;-50
2024/04/05 05:32:49;;;;;;;18.00;9.40;;;;;;;;;;5075300;28;20031;-53
2024/04/05 05:35:16;;;;;;;17.60;9.17;;;;;;;;;;5074721;28;20028;-52
2024/04/05 05:37:42;;;;;;;29.00;9.57;;;;;;;;;;5073346;28;20021;-48
2024/04/05 05:40:08;;;;;;;13.18;8.60;;;;;;;;;;5073221;28;20033;-49
2024/04/05 05:42:34;;;;;;;16.67;9.00;;;;;;;;;;5073242;28;20513;-48
2024/04/05 05:45:00;;;;;;;12.80;9.38;;;;;;;;;;5074485;28;20028;-48
2024/04/05 05:47:26;;;;;;;20.15;9.73;;;;;;;;;;5074459;28;20035;-49
2024/04/05 05:49:53;;;;;;;33.08;9.70;;;;;;;;;;5074208;28;20028;-48
2024/04/05 05:52:19;;;;;;;18.98;9.73;;;;;;;;;;5074414;28;20471;-48
2024/04/05 05:54:45;;;;;;;16.87;8.33;;;;;;;;;;5106920;28;20036;-48
2024/04/05 05:57:11;;;;;;;17.93;8.77;;;;;;;;;;5072979;28;20020;-48
2024/04/05 05:59:38;;;;;;;16.13;8.38;;;;;;;;;;5074085;28;20406;-48
2024/04/05 06:02:04;;;;;;;11.70;8.18;;;;;;;;;;5074233;28;20024;-48
2024/04/05 06:04:31;;;;;;;13.95;8.45;;;;;;;;;;5074060;28;20479;-49
2024/04/05 06:06:57;;;;;;;15.20;8.63;;;;;;;;;;5074194;28;20399;-49
2024/04/05 06:09:24;;;;;;;16.25;8.80;;;;;;;;;;5073993;28;20071;-48
2024/04/05 06:11:51;;;;;;;17.88;7.47;;;;;;;;;;5073899;28;20023;-48
2024/04/05 06:14:17;;;;;;;13.70;8.45;;;;;;;;;;5073954;28;20039;-51
2024/04/05 06:16:44;;;;;;;19.52;8.82;;;;;;;;;;5073965;28;20031;-48
2024/04/05 06:19:10;;;;;;;19.10;8.10;;;;;;;;;;5089477;28;20031;-48
2024/04/05 06:21:37;;;;;;;18.98;9.70;;;;;;;;;;5073764;28;20035;-48
2024/04/05 06:24:03;;;;;;;21.67;8.27;;;;;;;;;;5073871;28;20078;-49
2024/04/05 06:26:29;;;;;;;18.40;9.00;;;;;;;;;;5073654;28;20052;-48
2024/04/05 06:28:56;;;;;;;19.00;8.30;;;;;;;;;;5073564;28;20112;-48
2024/04/05 06:31:22;;;;;;;17.80;8.27;;;;;;;;;;5073522;28;20024;-48
2024/04/05 06:33:48;;;;;;;22.00;9.45;;;;;;;;;;5073622;28;20028;-48
2024/04/05 06:36:15;;;;;;;20.65;9.55;;;;;;;;;;5072375;28;20035;-48
2024/04/05 06:38:41;;;;;;;17.17;8.53;;;;;;;;;;5073421;28;20025;-49
2024/04/05 06:41:07;;;;;;;19.52;8.68;;;;;;;;;;5088905;28;20111;-49
2024/04/05 06:43:34;;;;;;;13.27;8.15;;;;;;;;;;5073307;28;20592;-48
2024/04/05 06:46:00;;;;;;;12.82;8.48;;;;;;;;;;5072159;28;20478;-48
2024/04/05 06:48:27;;;;;;;13.07;8.27;;;;;;;;;;5073282;28;20029;-49
2024/04/05 06:50:53;;;;;;;18.17;9.50;;;;;;;;;;5073130;28;20035;-48
2024/04/05 06:53:20;;;;;;;16.53;8.80;;;;;;;;;;5073170;28;20483;-48
2024/04/05 06:55:50;;;;;;;19.90;8.60;;;;;;;;;;5073201;28;20486;-48
2024/04/05 06:58:19;;;;;;;18.17;7.43;;;;;;;;;;5073050;28;20024;-48
2024/04/05 07:00:46;;;;;;;16.92;8.15;;;;;;;;;;5072879;28;20025;-48
2024/04/05 07:03:12;;;;;;;14.68;8.95;;;;;;;;;;5072927;28;20499;-48
2024/04/05 07:05:42;;;;;;;13.00;7.20;;;;;;;;;;5072623;28;20372;-48
2024/04/05 07:08:08;;;;;;;15.25;7.10;;;;;;;;;;5072882;28;20074;-48
2024/04/05 07:10:36;;;;;;;12.95;8.05;;;;;;;;;;5088244;28;20017;-48
2024/04/05 07:13:02;;;;;;;16.90;8.85;;;;;;;;;;5072775;28;20029;-48
2024/04/05 07:15:28;;;;;;;15.00;9.53;;;;;;;;;;5073007;28;20033;-48
2024/04/05 07:17:56;;;;;;;22.52;9.13;;;;;;;;;;5072723;28;20266;-48
2024/04/05 07:20:24;;;;;;;13.75;9.43;;;;;;;;;;5071237;28;20078;-49
2024/04/05 07:22:52;;;;;;;17.38;8.63;;;;;;;;;;5072532;28;20036;-48
2024/04/05 07:25:20;;;;;;;18.58;7.13;;;;;;;;;;5072581;28;20024;-48
2024/04/05 07:27:50;;;;;;;13.52;6.80;;;;;;;;;;5071258;28;20508;-48
2024/04/05 07:30:18;;;;;;;18.17;7.35;;;;;;;;;;5070950;28;20123;-50
2024/04/05 07:32:44;;;;;;;;;;;;;;;;;;5071517;28;20036;-51
2024/04/05 07:35:10;;;;;;;14.18;7.32;;;;;;;;;;5072315;28;19908;-50
2024/04/05 07:37:36;;;;;;;13.25;6.78;;;;;;;;;;5072372;28;20033;-48
2024/04/05 07:40:03;;;;;;;16.75;7.25;;;;;;;;;;5072026;28;20031;-49
2024/04/05 07:42:29;;;;;;;29.85;7.60;;;;;;;;;;5072204;28;20020;-49
2024/04/05 07:44:57;;;;;;;16.00;7.03;;;;;;;;;;5087858;28;20390;-48
2024/04/05 07:47:23;;;;;;;8.88;4.95;;;;;;;;;;5072137;28;20273;-49
2024/04/05 07:49:53;;;;;;;12.73;5.60;;;;;;;;;;5071944;28;20024;-49
2024/04/05 07:52:22;;;;;;;11.88;5.57;;;;;;;;;;5070904;28;20390;-49
2024/04/05 07:54:49;;;;;;;15.15;4.45;;;;;;;;;;5072110;28;20021;-48
2024/04/05 07:57:15;;;;;;;13.70;5.85;;;;;;;;;;5072104;28;20029;-49
2024/04/05 07:59:42;;;;;;;9.70;4.77;;;;;;;;;;5071837;28;20490;-48
2024/04/05 08:02:09;;;;;;;12.32;5.38;;;;;;;;;;5070709;28;20039;-48
2024/04/05 08:04:35;;;;;;;10.63;4.57;;;;;;;;;;5071837;28;20036;-49
2024/04/05 08:07:02;;;;;;;10.88;3.95;;;;;;;;;;5071943;28;20037;-48
2024/04/05 08:09:28;;;;;;;11.60;3.60;;;;;;;;;;5072280;28;20047;-48
2024/04/05 08:11:54;;;;;;;13.50;3.95;;;;;;;;;;5071920;28;20035;-48
2024/04/05 08:14:20;;;;;;;4.50;2.65;;;;;;;;;;5071885;28;20565;-48
2024/04/05 08:16:47;;;;;;;15.30;3.50;;;;;;;;;;5069551;28;20028;-48
2024/04/05 08:19:13;;;;;;;15.05;4.25;;;;;;;;;;5070537;28;20036;-50
2024/04/05 08:21:39;;;;;;;12.43;3.13;;;;;;;;;;5071579;28;20457;-49
2024/04/05 08:24:05;;;;;;;12.23;3.65;;;;;;;;;;5070356;28;20033;-49
2024/04/05 08:26:33;;;;;;;15.63;3.10;;;;;;;;;;5070458;28;20513;-48
2024/04/05 08:29:00;;;;;;;5.30;2.17;;;;;;;;;;5071617;28;20120;-49
2024/04/05 08:31:28;;;;;;;8.95;2.42;;;;;;;;;;5071361;28;20111;-49
2024/04/05 08:33:54;;;;;;;13.95;3.22;;;;;;;;;;5071581;28;20111;-48
2024/04/05 08:36:20;;;;;;;12.90;2.90;;;;;;;;;;5071663;28;20032;-48
2024/04/05 08:38:47;;;;;;;10.50;2.73;;;;;;;;;;5070361;28;20032;-48
2024/04/05 08:41:15;;;;;;;9.82;2.75;;;;;;;;;;5071396;28;20266;-49
2024/04/05 08:43:41;;;;;;;9.30;2.63;;;;;;;;;;5071529;28;20043;-48
2024/04/05 08:46:07;;;;;;;5.88;2.53;;;;;;;;;;5071491;28;20039;-48
2024/04/05 08:48:36;;;;;;;9.25;3.10;;;;;;;;;;5070218;28;20035;-49
2024/04/05 08:51:05;;;;;;;11.77;3.17;;;;;;;;;;5071362;28;20028;-48
2024/04/05 08:53:32;;;;;;;11.18;3.15;;;;;;;;;;5071417;28;20037;-49
2024/04/05 08:56:02;;;;;;;13.32;3.42;;;;;;;;;;5086954;28;20503;-48
2024/04/05 08:58:29;;;;;;;8.77;4.10;;;;;;;;;;5069932;28;20036;-49
2024/04/05 09:00:55;;;;;;;9.93;3.20;;;;;;;;;;5070064;28;20353;-48
2024/04/05 09:03:22;;;;;;;8.70;2.90;;;;;;;;;;5071298;28;20390;-51
2024/04/05 09:05:49;;;;;;;6.90;3.03;;;;;;;;;;5071301;28;20036;-49
2024/04/05 09:08:16;;;;;;;13.63;3.85;;;;;;;;;;5069946;28;20025;-51
2024/04/05 09:10:50;;;;;;;8.93;3.42;;;;;;;;;;5071155;28;20025;-49
2024/04/05 09:13:20;;;;;;;11.90;3.40;;;;;;;;;;5071181;28;20380;-49
2024/04/05 09:15:51;;;;;;;10.38;3.40;;;;;;;;;;5071689;28;20485;-48
2024/04/05 09:18:25;;;;;;;11.35;3.50;;;;;;;;;;5071135;28;20116;-49
2024/04/05 09:20:51;;;;;;;8.25;2.85;;;;;;;;;;5103558;28;20619;-48
2024/04/05 09:23:17;;;;;;;13.35;3.72;;;;;;;;;;5071069;28;20532;-49
2024/04/05 09:25:44;;;;;;;11.52;3.35;;;;;;;;;;5071122;28;20526;-48
2024/04/05 09:28:12;;;;;;;12.43;3.33;;;;;;;;;;5071537;28;20047;-48
2024/04/05 09:30:39;;;;;;;8.15;2.58;;;;;;;;;;5074708;28;20760;-49
2024/04/05 09:33:06;;;;;;;9.65;2.75;;;;;;;;;;5073553;28;20032;-48
2024/04/05 09:35:37;;;;;;;7.45;3.15;;;;;;;;;;5074856;28;20037;-48
2024/04/05 09:38:06;;;;;;;7.15;2.95;;;;;;;;;;5074573;28;20032;-48
2024/04/05 09:40:33;;;;;;;7.68;2.78;;;;;;;;;;5073323;28;20027;-49
2024/04/05 09:43:01;;;;;;;7.85;3.00;;;;;;;;;;5074493;28;20039;-49
2024/04/05 09:45:30;;;;;;;12.32;3.80;;;;;;;;;;5074499;28;20025;-49
2024/04/05 09:47:57;;;;;;;8.90;2.92;;;;;;;;;;5073251;28;20440;-49
2024/04/05 09:50:23;;;;;;;13.43;2.92;;;;;;;;;;5074468;28;20020;-48
2024/04/05 09:52:53;;;;;;;11.73;2.97;;;;;;;;;;5074447;28;20107;-49
2024/04/05 09:55:23;;;;;;;13.10;3.45;;;;;;;;;;5089889;28;20391;-48
2024/04/05 09:57:50;;;;;;;7.88;3.03;;;;;;;;;;5073107;28;20478;-48
2024/04/05 10:00:20;;;;;;;6.95;2.50;;;;;;;;;;5074143;28;20025;-48
2024/04/05 10:02:47;;;;;;;9.52;3.42;;;;;;;;;;5074173;28;20029;-48
2024/04/05 10:05:29;;;;;;;14.18;3.65;;;;;;;;;;5074149;28;20028;-50
2024/04/05 10:08:08;;;;;;;6.25;3.30;;;;;;;;;;5074156;28;20028;-49
2024/04/05 10:10:35;;;;;;;13.43;3.72;;;;;;;;;;5072678;28;20028;-48
2024/04/05 10:13:17;;;;;;;8.48;3.25;;;;;;;;;;5072750;28;20107;-50
2024/04/05 10:15:55;;;;;;;9.10;3.55;;;;;;;;;;5073989;28;20056;-49
2024/04/05 10:18:34;;;;;;;11.38;3.35;;;;;;;;;;5073800;28;20033;-51
2024/04/05 10:21:04;;;;;;;8.02;2.65;;;;;;;;;;5072284;28;20032;-49
2024/04/05 10:23:31;;;;;;;9.68;3.30;;;;;;;;;;5053860;28;20024;-49
2024/04/05 10:25:59;;;;;;;9.05;3.20;;;;;;;;;;5063957;28;20081;-51
2024/04/05 10:30:55;;;;;;;9.75;3.65;;;;;;;;;;5028644;28;19925;-48
2024/04/05 10:33:22;;;;;;;15.53;3.47;;;;;;;;;;5025154;28;20113;-49
2024/04/05 10:35:49;;;;;;;6.72;2.88;;;;;;;;;;5013970;28;20641;-50
2024/04/05 10:38:16;;;;;;;11.32;4.75;;;;;;;;;;5030609;28;20038;-51
2024/04/05 10:40:43;;;;;;;7.22;3.20;;;;;;;;;;5030508;28;20116;-49
2024/04/05 10:43:10;;;;;;;10.18;3.88;;;;;;;;;;5031393;28;20111;-48
2024/04/05 10:45:37;;;;;;;6.68;3.53;;;;;;;;;;5030937;28;20026;-49
2024/04/05 10:48:04;;;;;;;7.90;3.47;;;;;;;;;;5031316;28;20033;-48
2024/04/05 10:50:30;;;;;;;8.35;3.53;;;;;;;;;;5031616;28;20033;-49
2024/04/05 10:52:56;;;;;;;9.90;3.30;;;;;;;;;;5031496;28;20108;-49
2024/04/05 10:55:25;;;;;;;8.47;2.90;;;;;;;;;;5044718;28;20037;-49
2024/04/05 10:57:51;;;;;;;13.00;3.90;;;;;;;;;;5031196;28;20252;-50
2024/04/05 11:00:19;;;;;;;8.07;3.00;;;;;;;;;;5030945;28;20037;-48
2024/04/05 11:02:45;;;;;;;8.23;3.25;;;;;;;;;;5031304;28;20080;-49
2024/04/05 11:05:13;;;;;;;7.70;2.67;;;;;;;;;;5026987;28;20033;-51
2024/04/05 11:07:40;;;;;;;9.93;2.80;;;;;;;;;;5024371;28;20084;-49
2024/04/05 11:10:15;;;;;;;11.75;3.40;;;;;;;;;;5031116;28;20033;-50
2024/04/05 11:12:44;;;;;;;7.97;2.92;;;;;;;;;;5031600;28;20033;-48
2024/04/05 11:15:10;;;;;;;6.47;2.10;;;;;;;;;;5029489;28;20053;-51
2024/04/05 11:17:37;;;;;;;12.85;3.15;;;;;;;;;;5011024;28;20407;-50
2024/04/05 11:20:11;;;;;;;9.82;2.50;;;;;;;;;;5027370;28;20024;-49
2024/04/05 11:22:38;;;;;;;7.97;3.03;;;;;;;;;;5031011;28;20022;-52
2024/04/05 11:25:04;;;;;;;9.35;3.33;;;;;;;;;;5029689;28;20220;-52
2024/04/05 11:27:31;;;;;;;10.27;2.78;;;;;;;;;;5031097;28;20021;-49
2024/04/05 11:29:57;;;;;;;6.50;2.00;;;;;;;;;;5030749;28;20088;-50
2024/04/05 11:32:27;;;;;;;10.23;2.67;;;;;;;;;;5030398;28;20034;-49
2024/04/05 11:34:53;;;;;;;9.85;3.30;;;;;;;;;;5029024;28;20091;-48
2024/04/05 11:37:19;;;;;;;6.10;3.30;;;;;;;;;;5030943;28;20450;-51
2024/04/05 11:39:45;;;;;;;4.27;1.97;;;;;;;;;;5030740;28;20021;-49
2024/04/05 11:42:11;;;;;;;5.83;2.30;;;;;;;;;;5030571;28;20256;-49
2024/04/05 11:44:38;;;;;;;8.02;3.47;;;;;;;;;;5030700;28;20048;-49
2024/04/05 11:47:05;;;;;;;7.38;2.80;;;;;;;;;;4999601;28;20037;-49
2024/04/05 11:49:31;;;;;;;4.15;1.75;;;;;;;;;;5030555;28;20063;-49
2024/04/05 11:51:58;;;;;;;6.40;2.43;;;;;;;;;;5029040;28;20055;-49
2024/04/05 11:54:24;;;;;;;6.80;2.47;;;;;;;;;;5030666;28;20032;-49
2024/04/05 11:56:51;;;;;;;5.13;2.10;;;;;;;;;;5017413;28;20104;-50
2024/04/05 11:59:17;;;;;;;7.33;2.40;;;;;;;;;;5030664;28;20025;-49
2024/04/05 12:01:43;;;;;;;6.30;2.30;;;;;;;;;;5030035;28;20067;-50
2024/04/05 12:04:09;;;;;;;7.70;2.60;;;;;;;;;;5030074;28;20026;-49
2024/04/05 12:06:35;;;;;;;8.57;2.40;;;;;;;;;;5030370;28;20033;-49
2024/04/05 12:09:05;;;;;;;5.17;2.27;;;;;;;;;;5030023;28;20260;-52
2024/04/05 12:11:31;;;;;;;8.65;2.97;;;;;;;;;;5019514;28;20025;-50
2024/04/05 12:13:58;;;;;;;5.72;2.65;;;;;;;;;;5030146;28;20040;-50
2024/04/05 12:16:24;;;;;;;8.25;2.42;;;;;;;;;;5030408;28;20111;-49
2024/04/05 12:18:50;;;;;;;6.27;2.57;;;;;;;;;;5030276;28;20029;-49
2024/04/05 12:21:17;;;;;;;5.45;3.08;;;;;;;;;;5022302;28;20354;-49
2024/04/05 12:23:44;;;;;;;10.80;2.72;;;;;;;;;;5047145;28;20053;-49
2024/04/05 12:26:11;;;;;;;10.02;1.70;;;;;;;;;;5030010;28;20025;-49
2024/04/05 12:28:40;;;;;;;3.40;1.40;;;;;;;;;;5029796;28;20043;-50
2024/04/05 12:31:07;;;;;;;4.82;2.00;;;;;;;;;;5012300;28;20084;-49
2024/04/05 12:33:33;;;;;;;8.38;3.30;;;;;;;;;;5030589;28;20048;-49
2024/04/05 12:36:03;;;;;;;6.60;2.88;;;;;;;;;;5030701;28;20108;-50
2024/04/05 12:38:33;;;;;;;12.93;2.35;;;;;;;;;;5031544;28;20415;-49
2024/04/05 12:40:59;;;;;;;5.47;2.72;;;;;;;;;;5030320;28;20055;-48
2024/04/05 12:43:25;;;;;;;10.93;3.20;;;;;;;;;;5030402;28;20549;-49
2024/04/05 12:45:59;;;;;;;7.45;2.22;;;;;;;;;;5031430;28;20018;-49
2024/04/05 12:48:25;;;;;;;8.95;2.85;;;;;;;;;;5028628;28;20029;-49
2024/04/05 12:50:58;;;;;;;9.77;2.85;;;;;;;;;;5012898;28;20049;-49
2024/04/05 12:53:25;;;;;;;9.38;2.10;;;;;;;;;;5031333;28;20029;-50
2024/04/05 12:55:51;;;;;;;;;;;;;;;;;;5031399;28;20382;-50
2024/04/05 12:58:17;;;;;;;5.95;2.85;;;;;;;;;;5029977;28;20118;-50
2024/04/05 13:00:44;;;;;;;5.45;1.75;;;;;;;;;;5012340;28;20511;-49
2024/04/05 13:03:10;;;;;;;4.95;2.15;;;;;;;;;;5001795;28;20549;-49
2024/04/05 13:05:36;;;;;;;4.90;2.10;;;;;;;;;;5034084;28;20030;-49
2024/04/05 13:08:02;;;;;;;3.63;1.58;;;;;;;;;;5034539;28;20049;-48
2024/04/05 13:10:29;;;;;;;7.13;2.13;;;;;;;;;;5043323;28;20026;-47
2024/04/05 13:12:56;;;;;;;6.75;1.90;;;;;;;;;;5033941;28;20030;-48
2024/04/05 13:15:24;;;;;;;4.05;2.00;;;;;;;;;;5034074;28;20045;-50
2024/04/05 13:17:50;;;;;;;7.30;2.10;;;;;;;;;;5033926;28;20022;-49
2024/04/05 13:20:17;;;;;;;5.95;1.90;;;;;;;;;;5033667;28;20068;-48
2024/04/05 13:22:44;;;;;;;6.80;2.33;;;;;;;;;;5033757;28;20241;-51
2024/04/05 13:25:10;;;;;;;4.93;1.98;;;;;;;;;;5033818;28;20060;-48
2024/04/05 13:27:37;;;;;;;4.10;2.42;;;;;;;;;;5015915;28;20032;-49
2024/04/05 13:30:04;;;;;;;4.20;2.13;;;;;;;;;;5033196;28;20029;-50
2024/04/05 13:32:30;;;;;;;;;;;;;;;;;;5016189;28;20033;-48
2024/04/05 13:34:57;;;;;;;6.15;2.00;;;;;;;;;;5034108;28;19909;-48
2024/04/05 13:37:23;;;;;;;5.10;2.25;;;;;;;;;;5028247;28;20032;-49
2024/04/05 13:39:49;;;;;;;4.80;1.80;;;;;;;;;;5032829;28;20029;-49
2024/04/05 13:42:16;;;;;;;3.15;1.75;;;;;;;;;;5034651;28;20036;-47
2024/04/05 13:44:42;;;;;;;4.28;1.77;;;;;;;;;;5033292;28;20041;-53
2024/04/05 13:47:08;;;;;;;6.60;2.53;;;;;;;;;;5034410;28;20036;-53
2024/04/05 13:49:34;;;;;;;7.20;1.83;;;;;;;;;;5034405;28;20032;-52
2024/04/05 13:52:00;;;;;;;8.50;1.90;;;;;;;;;;5034535;28;20071;-52
2024/04/05 13:54:26;;;;;;;6.35;2.20;;;;;;;;;;5033205;28;20036;-53
2024/04/05 13:56:53;;;;;;;6.53;2.30;;;;;;;;;;5023443;28;20121;-48
2024/04/05 13:59:20;;;;;;;5.72;2.25;;;;;;;;;;5033673;28;20067;-48
2024/04/05 14:01:47;;;;;;;8.27;2.55;;;;;;;;;;5033901;28;20025;-48
2024/04/05 14:04:13;;;;;;;7.03;2.15;;;;;;;;;;5034025;28;20447;-48
2024/04/05 14:06:39;;;;;;;5.70;1.98;;;;;;;;;;5034358;28;20028;-48
2024/04/05 14:09:06;;;;;;;20.70;3.75;;;;;;;;;;5032650;28;20025;-49
2024/04/05 14:11:32;;;;;;;7.43;2.33;;;;;;;;;;5033955;28;20061;-50
2024/04/05 14:13:58;;;;;;;;;;;;;;;;;;5034364;28;20037;-51
2024/04/05 14:16:27;;;;;;;5.53;2.13;;;;;;;;;;5033160;28;19916;-50
2024/04/05 14:18:55;;;;;;;5.20;1.92;;;;;;;;;;5025231;28;20021;-48
2024/04/05 14:21:21;;;;;;;4.50;2.20;;;;;;;;;;5033497;28;20030;-51
2024/04/05 14:23:47;;;;;;;5.32;2.30;;;;;;;;;;5015878;28;20369;-52
2024/04/05 14:26:14;;;;;;;4.63;1.70;;;;;;;;;;5033809;28;20113;-50
2024/04/05 14:28:40;;;;;;;5.57;2.63;;;;;;;;;;5015912;28;20025;-50
2024/04/05 14:31:06;;;;;;;4.43;2.60;;;;;;;;;;5032620;28;20119;-50
2024/04/05 14:33:34;;;;;;;4.50;2.38;;;;;;;;;;5016011;28;20029;-50